createdAt,value
2019-05-19T00:00:13.045Z,15.20
2019-05-19T00:01:13.056Z,16.20
2019-05-19T00:02:13.056Z,15.20
2019-05-19T00:03:13.079Z,15.70
2019-05-19T00:04:13.489Z,15.10
2019-05-19T00:05:13.103Z,15.40
2019-05-19T00:06:13.112Z,15.60
2019-05-19T00:07:13.123Z,15.30
2019-05-19T00:08:13.163Z,15.40
2019-05-19T00:09:16.388Z,15.70
2019-05-19T00:10:13.174Z,17.40
2019-05-19T00:11:13.186Z,21.50
2019-05-19T00:12:13.237Z,22.50
2019-05-19T00:13:13.269Z,30.60
2019-05-19T00:14:13.291Z,22.70
2019-05-19T00:15:13.242Z,22.20
2019-05-19T00:16:13.257Z,22.20
2019-05-19T00:17:13.297Z,20.60
2019-05-19T00:18:13.285Z,20.00
2019-05-19T00:19:25.744Z,18.90
2019-05-19T00:20:13.330Z,20.10
2019-05-19T00:21:13.338Z,18.30
2019-05-19T00:22:13.379Z,17.60
2019-05-19T00:23:13.358Z,17.60
2019-05-19T00:24:13.383Z,17.00
2019-05-19T00:25:13.738Z,17.30
2019-05-19T00:26:13.401Z,17.50
2019-05-19T00:27:13.427Z,17.30
2019-05-19T00:29:13.446Z,16.90
2019-05-19T00:30:13.455Z,16.80
2019-05-19T00:31:13.471Z,17.20
2019-05-19T00:32:13.492Z,17.40
2019-05-19T00:33:13.501Z,17.10
2019-05-19T00:34:13.532Z,18.00
2019-05-19T00:35:13.531Z,18.10
2019-05-19T00:36:13.545Z,17.20
2019-05-19T00:37:13.565Z,17.60
2019-05-19T00:38:13.574Z,17.80
2019-05-19T00:39:13.595Z,17.50
2019-05-19T00:40:13.603Z,17.90
2019-05-19T00:41:13.617Z,18.40
2019-05-19T00:42:13.630Z,18.10
2019-05-19T00:43:13.650Z,18.20
2019-05-19T00:44:13.668Z,18.70
2019-05-19T00:45:13.683Z,17.90
2019-05-19T00:46:13.699Z,18.70
2019-05-19T00:47:13.702Z,18.60
2019-05-19T00:48:13.725Z,18.10
2019-05-19T00:49:13.735Z,18.90
2019-05-19T00:50:13.770Z,18.70
2019-05-19T00:51:13.764Z,18.20
2019-05-19T00:52:13.780Z,18.60
2019-05-19T00:53:13.793Z,18.60
2019-05-19T00:54:13.844Z,18.90
2019-05-19T00:55:13.817Z,19.50
2019-05-19T00:56:13.832Z,18.10
2019-05-19T00:57:13.849Z,18.00
2019-05-19T00:58:13.914Z,18.60
2019-05-19T00:59:13.879Z,18.70
2019-05-19T01:00:13.903Z,18.90
2019-05-19T01:01:14.005Z,18.60
2019-05-19T01:02:14.034Z,18.00
2019-05-19T01:03:13.942Z,18.70
2019-05-19T01:04:13.947Z,17.50
2019-05-19T01:05:13.964Z,19.00
2019-05-19T01:06:14.008Z,19.40
2019-05-19T01:07:13.994Z,18.30
2019-05-19T01:08:14.011Z,18.20
2019-05-19T01:09:14.026Z,18.60
2019-05-19T01:10:14.035Z,19.10
2019-05-19T01:11:14.047Z,19.00
2019-05-19T01:12:14.073Z,19.40
2019-05-19T01:13:14.086Z,19.40
2019-05-19T01:14:15.394Z,18.70
2019-05-19T01:15:14.107Z,18.80
2019-05-19T01:16:14.131Z,19.00
2019-05-19T01:17:14.144Z,18.60
2019-05-19T01:18:14.161Z,19.50
2019-05-19T01:19:14.165Z,19.90
2019-05-19T01:20:14.187Z,18.80
2019-05-19T01:21:14.196Z,19.40
2019-05-19T01:22:14.214Z,19.00
2019-05-19T01:23:14.222Z,20.10
2019-05-19T01:24:14.244Z,20.00
2019-05-19T01:25:14.284Z,19.70
2019-05-19T01:26:14.272Z,20.10
2019-05-19T01:27:14.278Z,20.40
2019-05-19T01:29:14.312Z,19.70
2019-05-19T01:30:14.324Z,19.20
2019-05-19T01:31:14.335Z,19.40
2019-05-19T01:32:14.370Z,20.10
2019-05-19T01:33:14.365Z,20.30
2019-05-19T01:34:14.381Z,19.60
2019-05-19T01:35:14.403Z,19.60
2019-05-19T01:36:14.419Z,20.10
2019-05-19T01:37:14.427Z,20.00
2019-05-19T01:38:14.434Z,19.10
2019-05-19T01:39:14.454Z,19.80
2019-05-19T01:40:14.470Z,19.40
2019-05-19T01:41:14.485Z,20.40
2019-05-19T01:42:14.501Z,20.10
2019-05-19T01:43:14.526Z,20.20
2019-05-19T01:44:14.578Z,21.50
2019-05-19T01:45:14.624Z,20.60
2019-05-19T01:46:14.552Z,20.30
2019-05-19T01:47:14.569Z,20.60
2019-05-19T01:48:14.584Z,19.60
2019-05-19T01:49:14.594Z,21.20
2019-05-19T01:50:18.098Z,20.50
2019-05-19T01:51:14.622Z,20.70
2019-05-19T01:52:14.637Z,21.20
2019-05-19T01:53:14.678Z,21.00
2019-05-19T01:54:16.721Z,21.10
2019-05-19T01:55:14.727Z,21.50
2019-05-19T01:56:14.705Z,21.20
2019-05-19T01:57:14.758Z,20.90
2019-05-19T01:58:14.772Z,20.80
2019-05-19T01:59:14.800Z,21.00
2019-05-19T02:00:14.751Z,22.30
2019-05-19T02:01:14.964Z,21.30
2019-05-19T02:02:14.806Z,21.00
2019-05-19T02:03:14.877Z,21.20
2019-05-19T02:04:14.844Z,21.80
2019-05-19T02:05:14.828Z,21.40
2019-05-19T02:06:14.834Z,21.30
2019-05-19T02:07:14.868Z,21.40
2019-05-19T02:08:14.863Z,21.60
2019-05-19T02:09:14.910Z,21.60
2019-05-19T02:10:14.917Z,21.70
2019-05-19T02:11:14.905Z,20.90
2019-05-19T02:12:14.936Z,20.90
2019-05-19T02:13:14.940Z,21.70
2019-05-19T02:14:14.952Z,21.40
2019-05-19T02:15:14.968Z,22.10
2019-05-19T02:16:14.989Z,21.40
2019-05-19T02:17:15.002Z,21.70
2019-05-19T02:18:15.010Z,21.70
2019-05-19T02:19:15.022Z,21.10
2019-05-19T02:20:15.039Z,21.90
2019-05-19T02:21:15.053Z,21.90
2019-05-19T02:22:15.069Z,21.70
2019-05-19T02:23:15.084Z,21.60
2019-05-19T02:24:15.092Z,21.20
2019-05-19T02:25:15.115Z,21.20
2019-05-19T02:26:15.119Z,20.50
2019-05-19T02:27:15.152Z,21.60
2019-05-19T02:28:15.358Z,21.90
2019-05-19T02:29:15.167Z,21.90
2019-05-19T02:30:15.231Z,22.60
2019-05-19T02:31:15.435Z,22.20
2019-05-19T02:32:15.212Z,22.10
2019-05-19T02:33:15.227Z,22.30
2019-05-19T02:34:15.246Z,23.00
2019-05-19T02:35:15.256Z,22.00
2019-05-19T02:36:15.271Z,21.00
2019-05-19T02:37:15.345Z,22.70
2019-05-19T02:38:15.293Z,22.50
2019-05-19T02:39:15.308Z,22.20
2019-05-19T02:40:15.319Z,24.00
2019-05-19T02:41:15.332Z,22.40
2019-05-19T02:42:15.349Z,23.20
2019-05-19T02:43:15.364Z,23.40
2019-05-19T02:44:15.385Z,22.70
2019-05-19T02:45:15.393Z,23.60
2019-05-19T02:46:15.404Z,22.60
2019-05-19T02:47:15.466Z,23.30
2019-05-19T02:48:15.430Z,22.80
2019-05-19T02:49:15.449Z,24.40
2019-05-19T02:50:15.473Z,24.10
2019-05-19T02:51:15.479Z,22.10
2019-05-19T02:52:15.549Z,23.70
2019-05-19T02:53:15.529Z,24.30
2019-05-19T02:54:15.518Z,23.30
2019-05-19T02:55:15.547Z,23.70
2019-05-19T02:56:15.546Z,23.10
2019-05-19T02:57:15.565Z,23.80
2019-05-19T02:58:15.576Z,23.50
2019-05-19T02:59:15.783Z,24.50
2019-05-19T03:00:15.613Z,24.50
2019-05-19T03:01:15.619Z,23.90
2019-05-19T03:02:15.730Z,24.40
2019-05-19T03:03:15.757Z,24.50
2019-05-19T03:04:15.797Z,24.90
2019-05-19T03:05:15.968Z,25.60
2019-05-19T03:06:15.689Z,24.90
2019-05-19T03:07:15.704Z,25.90
2019-05-19T03:08:15.715Z,25.60
2019-05-19T03:09:15.734Z,26.60
2019-05-19T03:10:15.745Z,26.30
2019-05-19T03:11:15.770Z,25.40
2019-05-19T03:12:15.775Z,26.50
2019-05-19T03:13:15.809Z,26.30
2019-05-19T03:14:15.808Z,27.40
2019-05-19T03:15:15.815Z,26.20
2019-05-19T03:16:15.832Z,26.90
2019-05-19T03:17:15.842Z,26.20
2019-05-19T03:18:15.866Z,25.90
2019-05-19T03:19:15.869Z,26.40
2019-05-19T03:20:15.892Z,26.50
2019-05-19T03:21:15.898Z,25.40
2019-05-19T03:22:15.911Z,27.30
2019-05-19T03:23:15.925Z,27.00
2019-05-19T03:24:15.939Z,26.80
2019-05-19T03:25:15.955Z,27.70
2019-05-19T03:26:15.967Z,27.00
2019-05-19T03:27:15.988Z,27.50
2019-05-19T03:28:16.050Z,28.80
2019-05-19T03:29:16.011Z,29.00
2019-05-19T03:30:16.030Z,28.70
2019-05-19T03:31:16.056Z,28.70
2019-05-19T03:32:16.055Z,27.90
2019-05-19T03:33:16.133Z,28.60
2019-05-19T03:34:16.159Z,29.40
2019-05-19T03:35:16.106Z,29.30
2019-05-19T03:36:16.113Z,28.10
2019-05-19T03:37:16.127Z,29.50
2019-05-19T03:38:16.147Z,30.70
2019-05-19T03:39:16.147Z,30.60
2019-05-19T03:40:16.164Z,30.20
2019-05-19T03:41:16.179Z,30.00
2019-05-19T03:42:16.296Z,30.10
2019-05-19T03:43:16.224Z,31.10
2019-05-19T03:44:16.226Z,30.80
2019-05-19T03:45:16.247Z,30.80
2019-05-19T03:46:16.251Z,31.40
2019-05-19T03:47:16.261Z,31.10
2019-05-19T03:48:16.287Z,32.20
2019-05-19T03:49:16.294Z,30.90
2019-05-19T03:50:16.321Z,30.90
2019-05-19T03:51:30.113Z,31.40
2019-05-19T03:52:16.337Z,29.90
2019-05-19T03:53:16.347Z,31.70
2019-05-19T03:54:16.360Z,31.10
2019-05-19T03:55:16.381Z,30.40
2019-05-19T03:56:16.400Z,31.60
2019-05-19T03:57:16.404Z,30.90
2019-05-19T03:58:16.423Z,30.10
2019-05-19T03:59:16.428Z,31.80
2019-05-19T04:00:16.446Z,29.80
2019-05-19T04:01:16.474Z,31.50
2019-05-19T04:02:16.488Z,31.30
2019-05-19T04:03:16.491Z,30.40
2019-05-19T04:04:16.505Z,31.30
2019-05-19T04:05:16.523Z,31.00
2019-05-19T04:06:16.742Z,31.20
2019-05-19T04:07:16.546Z,31.20
2019-05-19T04:08:16.600Z,31.80
2019-05-19T04:09:17.473Z,31.90
2019-05-19T04:10:16.584Z,32.10
2019-05-19T04:11:16.625Z,31.00
2019-05-19T04:12:16.620Z,31.00
2019-05-19T04:13:16.633Z,31.00
2019-05-19T04:14:16.650Z,31.80
2019-05-19T04:15:16.654Z,32.50
2019-05-19T04:16:16.673Z,30.60
2019-05-19T04:17:16.691Z,31.90
2019-05-19T04:18:16.701Z,31.60
2019-05-19T04:19:16.762Z,31.90
2019-05-19T04:20:16.727Z,32.30
2019-05-19T04:21:16.742Z,31.30
2019-05-19T04:22:16.754Z,31.00
2019-05-19T04:23:16.780Z,29.90
2019-05-19T04:24:16.781Z,31.50
2019-05-19T04:25:16.911Z,30.80
2019-05-19T04:26:16.807Z,31.40
2019-05-19T04:27:16.830Z,32.30
2019-05-19T04:28:16.848Z,31.00
2019-05-19T04:29:16.854Z,30.40
2019-05-19T04:30:16.878Z,31.00
2019-05-19T04:31:16.883Z,30.40
2019-05-19T04:32:16.895Z,30.80
2019-05-19T04:33:16.914Z,31.20
2019-05-19T04:34:16.923Z,31.80
2019-05-19T04:35:16.938Z,29.90
2019-05-19T04:36:16.954Z,31.60
2019-05-19T04:37:16.976Z,30.00
2019-05-19T04:38:16.996Z,30.60
2019-05-19T04:39:16.994Z,30.30
2019-05-19T04:40:17.018Z,29.30
2019-05-19T04:41:17.026Z,29.40
2019-05-19T04:42:17.049Z,30.20
2019-05-19T04:43:17.049Z,30.10
2019-05-19T04:44:17.065Z,29.70
2019-05-19T04:45:17.079Z,29.50
2019-05-19T04:46:17.089Z,29.60
2019-05-19T04:47:17.112Z,29.20
2019-05-19T04:48:17.119Z,29.80
2019-05-19T04:49:17.146Z,29.00
2019-05-19T04:50:17.157Z,29.00
2019-05-19T04:51:17.162Z,28.80
2019-05-19T04:52:17.178Z,29.50
2019-05-19T04:53:17.196Z,28.80
2019-05-19T04:54:17.203Z,29.20
2019-05-19T04:55:17.215Z,28.60
2019-05-19T04:56:19.694Z,28.60
2019-05-19T04:57:17.250Z,27.70
2019-05-19T04:58:17.257Z,28.70
2019-05-19T04:59:17.297Z,28.30
2019-05-19T05:00:17.297Z,27.60
2019-05-19T05:01:17.304Z,28.50
2019-05-19T05:02:17.317Z,29.20
2019-05-19T05:03:17.328Z,28.40
2019-05-19T05:04:17.460Z,26.60
2019-05-19T05:05:17.364Z,27.00
2019-05-19T05:06:17.380Z,26.00
2019-05-19T05:07:17.414Z,26.70
2019-05-19T05:08:28.900Z,26.90
2019-05-19T05:09:17.421Z,26.10
2019-05-19T05:10:17.427Z,25.50
2019-05-19T05:11:17.453Z,26.90
2019-05-19T05:12:17.462Z,26.80
2019-05-19T05:13:17.472Z,25.80
2019-05-19T05:14:17.490Z,25.80
2019-05-19T05:15:17.505Z,26.60
2019-05-19T05:16:17.519Z,25.00
2019-05-19T05:17:17.558Z,25.10
2019-05-19T05:18:17.556Z,24.70
2019-05-19T05:19:17.559Z,25.00
2019-05-19T05:20:17.580Z,23.20
2019-05-19T05:21:17.595Z,25.20
2019-05-19T05:22:22.078Z,24.20
2019-05-19T05:23:17.620Z,23.70
2019-05-19T05:24:17.633Z,23.60
2019-05-19T05:25:17.648Z,24.00
2019-05-19T05:26:17.656Z,24.20
2019-05-19T05:27:17.670Z,23.50
2019-05-19T05:28:17.684Z,23.20
2019-05-19T05:29:17.705Z,23.90
2019-05-19T05:30:17.728Z,22.50
2019-05-19T05:31:17.735Z,23.00
2019-05-19T05:32:17.741Z,22.90
2019-05-19T05:33:17.756Z,23.20
2019-05-19T05:34:17.769Z,23.30
2019-05-19T05:35:17.810Z,23.10
2019-05-19T05:36:17.797Z,23.40
2019-05-19T05:37:17.975Z,23.40
2019-05-19T05:38:17.828Z,20.90
2019-05-19T05:39:17.857Z,22.50
2019-05-19T05:40:17.912Z,22.30
2019-05-19T05:41:17.886Z,22.50
2019-05-19T05:42:17.887Z,22.30
2019-05-19T05:43:17.898Z,21.50
2019-05-19T05:44:17.923Z,22.00
2019-05-19T05:45:17.927Z,22.30
2019-05-19T05:46:17.946Z,21.90
2019-05-19T05:47:17.958Z,21.90
2019-05-19T05:48:17.985Z,21.20
2019-05-19T05:49:18.005Z,20.90
2019-05-19T05:50:17.998Z,19.90
2019-05-19T05:51:18.013Z,21.00
2019-05-19T05:52:18.029Z,20.20
2019-05-19T05:53:18.041Z,19.90
2019-05-19T05:54:18.065Z,18.80
2019-05-19T05:55:18.078Z,20.40
2019-05-19T05:56:18.094Z,19.10
2019-05-19T05:57:18.116Z,18.90
2019-05-19T05:58:18.121Z,18.30
2019-05-19T05:59:18.137Z,18.10
2019-05-19T06:00:18.160Z,18.80
2019-05-19T06:01:18.159Z,18.60
2019-05-19T06:02:18.178Z,18.60
2019-05-19T06:03:18.183Z,19.40
2019-05-19T06:04:18.207Z,18.20
2019-05-19T06:05:18.221Z,18.90
2019-05-19T06:06:18.227Z,18.60
2019-05-19T06:07:18.244Z,18.50
2019-05-19T06:08:18.280Z,17.90
2019-05-19T06:09:18.374Z,17.90
2019-05-19T06:10:18.296Z,18.00
2019-05-19T06:11:18.301Z,17.50
2019-05-19T06:12:18.318Z,16.10
2019-05-19T06:13:18.333Z,17.80
2019-05-19T06:14:18.348Z,16.90
2019-05-19T06:15:18.366Z,17.00
2019-05-19T06:16:18.375Z,17.30
2019-05-19T06:17:18.395Z,17.00
2019-05-19T06:18:18.409Z,16.90
2019-05-19T06:19:18.417Z,16.60
2019-05-19T06:20:18.434Z,16.50
2019-05-19T06:21:18.465Z,15.50
2019-05-19T06:22:18.468Z,16.10
2019-05-19T06:23:18.491Z,17.40
2019-05-19T06:24:18.496Z,14.80
2019-05-19T06:25:18.507Z,15.30
2019-05-19T06:26:18.524Z,14.90
2019-05-19T06:27:18.536Z,15.20
2019-05-19T06:28:18.549Z,14.60
2019-05-19T06:29:18.567Z,14.90
2019-05-19T06:30:18.580Z,14.80
2019-05-19T06:31:18.599Z,14.20
2019-05-19T06:32:18.607Z,14.40
2019-05-19T06:33:18.626Z,15.00
2019-05-19T06:34:18.637Z,15.00
2019-05-19T06:35:18.669Z,14.90
2019-05-19T06:36:18.667Z,14.00
2019-05-19T06:37:18.687Z,13.90
2019-05-19T06:38:18.705Z,13.70
2019-05-19T06:39:18.713Z,14.40
2019-05-19T06:40:18.733Z,13.80
2019-05-19T06:41:18.747Z,14.30
2019-05-19T06:42:18.762Z,13.90
2019-05-19T06:43:18.808Z,14.10
2019-05-19T06:44:18.805Z,13.30
2019-05-19T06:45:18.805Z,14.40
2019-05-19T06:46:18.820Z,14.30
2019-05-19T06:47:18.837Z,13.90
2019-05-19T06:48:18.849Z,13.60
2019-05-19T06:49:18.862Z,14.70
2019-05-19T06:50:18.883Z,14.10
2019-05-19T06:51:18.906Z,13.70
2019-05-19T06:52:18.904Z,13.00
2019-05-19T06:53:18.933Z,13.90
2019-05-19T06:54:18.939Z,13.80
2019-05-19T06:55:18.949Z,13.90
2019-05-19T06:56:18.971Z,13.60
2019-05-19T06:57:18.986Z,14.30
2019-05-19T06:58:18.997Z,13.60
2019-05-19T06:59:19.009Z,13.40
2019-05-19T07:00:19.064Z,13.20
2019-05-19T07:01:19.056Z,12.50
2019-05-19T07:02:19.077Z,13.40
2019-05-19T07:03:19.077Z,12.80
2019-05-19T07:04:19.085Z,12.90
2019-05-19T07:05:19.109Z,13.00
2019-05-19T07:06:19.133Z,14.10
2019-05-19T07:07:19.237Z,13.10
2019-05-19T07:08:19.148Z,12.60
2019-05-19T07:09:19.227Z,13.10
2019-05-19T07:10:19.185Z,13.00
2019-05-19T07:11:19.198Z,13.30
2019-05-19T07:12:19.200Z,13.40
2019-05-19T07:13:19.385Z,13.30
2019-05-19T07:14:19.342Z,13.20
2019-05-19T07:15:19.278Z,14.50
2019-05-19T07:16:19.369Z,14.10
2019-05-19T07:17:19.280Z,13.50
2019-05-19T07:18:19.288Z,15.10
2019-05-19T07:19:19.304Z,14.70
2019-05-19T07:20:19.321Z,13.70
2019-05-19T07:21:19.337Z,13.50
2019-05-19T07:22:19.352Z,14.00
2019-05-19T07:23:27.725Z,13.40
2019-05-19T07:24:19.385Z,12.30
2019-05-19T07:25:19.427Z,11.80
2019-05-19T07:26:19.416Z,11.80
2019-05-19T07:27:19.425Z,11.50
2019-05-19T07:28:19.496Z,12.20
2019-05-19T07:29:19.602Z,11.90
2019-05-19T07:30:19.479Z,11.10
2019-05-19T07:31:19.503Z,11.50
2019-05-19T07:32:19.559Z,11.40
2019-05-19T07:33:19.536Z,10.70
2019-05-19T07:34:19.539Z,10.90
2019-05-19T07:35:19.576Z,11.30
2019-05-19T07:36:19.650Z,10.80
2019-05-19T07:37:19.581Z,11.50
2019-05-19T07:38:19.588Z,12.20
2019-05-19T07:39:19.606Z,11.10
2019-05-19T07:40:19.655Z,11.40
2019-05-19T07:41:19.635Z,11.40
2019-05-19T07:42:19.854Z,11.20
2019-05-19T07:43:19.706Z,11.90
2019-05-19T07:44:19.676Z,12.00
2019-05-19T07:45:19.707Z,11.30
2019-05-19T07:46:19.884Z,11.00
2019-05-19T07:47:19.729Z,11.70
2019-05-19T07:48:19.855Z,11.80
2019-05-19T07:49:19.758Z,11.30
2019-05-19T07:50:19.773Z,11.90
2019-05-19T07:51:19.790Z,11.80
2019-05-19T07:52:19.800Z,12.80
2019-05-19T07:53:19.849Z,12.20
2019-05-19T07:54:19.840Z,11.80
2019-05-19T07:55:19.856Z,12.40
2019-05-19T07:56:19.914Z,11.30
2019-05-19T07:57:19.885Z,12.30
2019-05-19T07:58:19.945Z,11.80
2019-05-19T07:59:19.950Z,12.10
2019-05-19T08:00:19.927Z,12.50
2019-05-19T08:01:19.941Z,12.70
2019-05-19T08:02:20.034Z,11.80
2019-05-19T08:03:19.958Z,13.10
2019-05-19T08:04:19.974Z,12.40
2019-05-19T08:05:19.997Z,12.20
2019-05-19T08:06:20.004Z,13.40
2019-05-19T08:07:20.054Z,13.30
2019-05-19T08:08:20.039Z,12.70
2019-05-19T08:09:20.163Z,13.20
2019-05-19T08:10:20.063Z,12.30
2019-05-19T08:11:20.079Z,12.60
2019-05-19T08:12:20.101Z,13.00
2019-05-19T08:13:20.109Z,13.10
2019-05-19T08:14:20.125Z,13.00
2019-05-19T08:15:20.157Z,11.90
2019-05-19T08:16:20.161Z,12.50
2019-05-19T08:17:20.194Z,12.40
2019-05-19T08:18:20.223Z,12.70
2019-05-19T08:19:20.197Z,12.40
2019-05-19T08:20:20.277Z,12.40
2019-05-19T08:21:20.336Z,11.60
2019-05-19T08:22:20.530Z,12.50
2019-05-19T08:23:20.380Z,12.20
2019-05-19T08:24:20.291Z,11.80
2019-05-19T08:25:20.301Z,12.20
2019-05-19T08:26:20.308Z,11.90
2019-05-19T08:27:20.331Z,12.00
2019-05-19T08:28:20.342Z,12.00
2019-05-19T08:29:20.355Z,11.10
2019-05-19T08:30:20.382Z,12.00
2019-05-19T08:31:20.398Z,11.60
2019-05-19T08:32:20.521Z,11.20
2019-05-19T08:33:20.426Z,10.80
2019-05-19T08:34:20.535Z,11.40
2019-05-19T08:35:20.450Z,11.60
2019-05-19T08:36:20.468Z,10.90
2019-05-19T08:37:20.478Z,10.90
2019-05-19T08:38:20.508Z,11.10
2019-05-19T08:39:20.513Z,11.30
2019-05-19T08:40:20.730Z,10.60
2019-05-19T08:41:20.545Z,11.10
2019-05-19T08:42:20.601Z,10.60
2019-05-19T08:43:20.570Z,11.10
2019-05-19T08:44:20.583Z,11.20
2019-05-19T08:45:20.601Z,10.20
2019-05-19T08:46:20.618Z,11.10
2019-05-19T08:47:20.638Z,10.50
2019-05-19T08:48:20.774Z,10.30
2019-05-19T08:49:20.659Z,10.20
2019-05-19T08:50:20.673Z,10.90
2019-05-19T08:51:20.690Z,10.40
2019-05-19T08:52:20.709Z,10.10
2019-05-19T08:53:20.729Z,10.50
2019-05-19T08:54:20.735Z,10.70
2019-05-19T08:55:20.795Z,10.50
2019-05-19T08:56:20.795Z,11.30
2019-05-19T08:57:20.792Z,11.50
2019-05-19T08:58:20.809Z,10.00
2019-05-19T08:59:20.815Z,10.90
2019-05-19T09:00:20.831Z,9.80
2019-05-19T09:01:20.851Z,10.80
2019-05-19T09:02:20.853Z,12.40
2019-05-19T09:03:20.879Z,11.40
2019-05-19T09:04:20.906Z,12.80
2019-05-19T09:05:20.940Z,11.90
2019-05-19T09:06:21.431Z,12.90
2019-05-19T09:07:20.933Z,12.40
2019-05-19T09:08:20.955Z,11.50
2019-05-19T09:09:20.967Z,11.10
2019-05-19T09:10:20.990Z,12.30
2019-05-19T09:11:20.998Z,11.70
2019-05-19T09:12:21.014Z,11.50
2019-05-19T09:13:21.029Z,11.10
2019-05-19T09:14:21.076Z,11.10
2019-05-19T09:15:21.056Z,11.60
2019-05-19T09:16:21.073Z,11.90
2019-05-19T09:17:21.099Z,12.00
2019-05-19T09:18:21.125Z,11.20
2019-05-19T09:19:21.124Z,11.00
2019-05-19T09:20:21.133Z,11.10
2019-05-19T09:21:21.147Z,11.30
2019-05-19T09:22:21.164Z,11.50
2019-05-19T09:23:21.180Z,11.50
2019-05-19T09:24:30.150Z,11.20
2019-05-19T09:25:21.223Z,11.20
2019-05-19T09:26:21.224Z,10.50
2019-05-19T09:27:21.234Z,11.30
2019-05-19T09:28:21.257Z,12.00
2019-05-19T09:29:21.272Z,11.50
2019-05-19T09:30:21.292Z,12.10
2019-05-19T09:31:21.476Z,11.50
2019-05-19T09:32:21.328Z,12.20
2019-05-19T09:33:21.342Z,11.30
2019-05-19T09:34:21.368Z,11.90
2019-05-19T09:35:21.368Z,11.50
2019-05-19T09:36:21.387Z,11.20
2019-05-19T09:37:21.468Z,11.50
2019-05-19T09:38:21.424Z,12.00
2019-05-19T09:40:21.457Z,11.80
2019-05-19T09:41:21.480Z,11.00
2019-05-19T09:42:21.482Z,11.70
2019-05-19T09:43:21.548Z,11.50
2019-05-19T09:44:21.640Z,10.50
2019-05-19T09:45:21.775Z,11.70
2019-05-19T09:46:21.567Z,12.00
2019-05-19T09:47:21.563Z,11.90
2019-05-19T09:48:21.580Z,12.20
2019-05-19T09:49:21.594Z,12.30
2019-05-19T09:50:21.620Z,12.80
2019-05-19T09:51:21.640Z,12.20
2019-05-19T09:52:21.650Z,12.20
2019-05-19T09:53:21.668Z,13.00
2019-05-19T09:54:21.677Z,12.20
2019-05-19T09:55:21.699Z,12.70
2019-05-19T09:56:21.710Z,13.20
2019-05-19T09:57:21.737Z,12.50
2019-05-19T09:58:21.745Z,13.30
2019-05-19T09:59:21.770Z,11.90
2019-05-19T10:00:21.784Z,12.10
2019-05-19T10:01:21.805Z,12.10
2019-05-19T10:02:21.814Z,11.80
2019-05-19T10:03:21.976Z,12.10
2019-05-19T10:04:21.851Z,12.00
2019-05-19T10:05:22.020Z,11.90
2019-05-19T10:06:21.881Z,11.40
2019-05-19T10:07:21.906Z,12.00
2019-05-19T10:08:21.940Z,10.70
2019-05-19T10:09:21.932Z,11.60
2019-05-19T10:10:21.978Z,12.10
2019-05-19T10:11:21.975Z,10.90
2019-05-19T10:12:21.986Z,11.40
2019-05-19T10:13:22.010Z,11.20
2019-05-19T10:14:22.013Z,12.40
2019-05-19T10:15:22.032Z,11.10
2019-05-19T10:16:22.053Z,11.80
2019-05-19T10:17:22.076Z,12.50
2019-05-19T10:18:22.088Z,12.80
2019-05-19T10:19:22.112Z,13.30
2019-05-19T10:20:22.122Z,12.10
2019-05-19T10:21:22.137Z,11.10
2019-05-19T10:22:22.152Z,12.20
2019-05-19T10:23:22.175Z,10.40
2019-05-19T10:24:22.191Z,10.80
2019-05-19T10:25:23.238Z,10.70
2019-05-19T10:26:22.347Z,11.00
2019-05-19T10:27:22.244Z,10.10
2019-05-19T10:28:22.252Z,9.50
2019-05-19T10:29:22.291Z,9.40
2019-05-19T10:30:22.294Z,10.30
2019-05-19T10:31:22.306Z,11.70
2019-05-19T10:33:19.913Z,11.80
2019-05-19T10:34:19.942Z,10.90
2019-05-19T10:35:19.942Z,11.00
2019-05-19T10:36:19.982Z,10.40
2019-05-19T10:37:19.991Z,11.00
2019-05-19T10:38:19.995Z,11.70
2019-05-19T10:39:20.011Z,10.70
2019-05-19T10:40:20.029Z,10.40
2019-05-19T10:41:20.042Z,11.00
2019-05-19T10:42:20.078Z,11.20
2019-05-19T10:43:20.100Z,16.00
2019-05-19T10:44:20.098Z,11.20
2019-05-19T10:45:20.112Z,9.80
2019-05-19T10:46:20.136Z,9.50
2019-05-19T10:47:20.623Z,8.70
2019-05-19T10:48:20.161Z,9.20
2019-05-19T10:49:20.173Z,8.20
2019-05-19T10:50:20.226Z,7.80
2019-05-19T10:51:20.203Z,8.10
2019-05-19T10:52:20.255Z,8.20
2019-05-19T10:53:20.238Z,7.90
2019-05-19T10:54:20.269Z,8.10
2019-05-19T10:55:20.296Z,8.40
2019-05-19T10:56:20.535Z,7.90
2019-05-19T10:57:20.300Z,7.30
2019-05-19T10:58:20.488Z,7.30
2019-05-19T10:59:20.335Z,7.40
2019-05-19T11:00:20.352Z,7.90
2019-05-19T11:02:20.392Z,7.30
2019-05-19T11:03:20.404Z,7.50
2019-05-19T11:04:20.422Z,7.20
2019-05-19T11:05:20.436Z,7.00
2019-05-19T11:06:20.452Z,6.40
2019-05-19T11:07:20.467Z,6.90
2019-05-19T11:08:20.487Z,7.10
2019-05-19T11:09:20.510Z,7.50
2019-05-19T11:10:20.520Z,6.60
2019-05-19T11:11:20.558Z,6.80
2019-05-19T11:12:20.549Z,7.20
2019-05-19T11:13:20.566Z,6.20
2019-05-19T11:14:20.587Z,6.80
2019-05-19T11:15:20.605Z,6.10
2019-05-19T11:16:20.611Z,5.80
2019-05-19T11:17:20.673Z,5.90
2019-05-19T11:18:20.681Z,5.70
2019-05-19T11:19:20.884Z,5.70
2019-05-19T11:20:20.698Z,6.50
2019-05-19T11:21:20.693Z,5.90
2019-05-19T11:22:20.772Z,5.70
2019-05-19T11:23:21.355Z,6.10
2019-05-19T11:24:20.748Z,6.20
2019-05-19T11:25:32.949Z,5.80
2019-05-19T11:26:20.792Z,5.70
2019-05-19T11:27:20.803Z,5.80
2019-05-19T11:28:20.823Z,5.60
2019-05-19T11:29:20.847Z,5.70
2019-05-19T11:30:20.897Z,5.80
2019-05-19T11:31:21.067Z,5.50
2019-05-19T11:32:20.991Z,4.80
2019-05-19T11:33:20.930Z,5.20
2019-05-19T11:34:20.933Z,5.50
2019-05-19T11:35:20.960Z,7.00
2019-05-19T11:36:20.957Z,4.70
2019-05-19T11:37:20.969Z,4.60
2019-05-19T11:38:21.075Z,4.50
2019-05-19T11:39:21.133Z,4.70
2019-05-19T11:40:21.031Z,4.80
2019-05-19T11:41:21.038Z,4.60
2019-05-19T11:42:21.044Z,4.80
2019-05-19T11:43:21.055Z,5.20
2019-05-19T11:44:21.087Z,5.20
2019-05-19T11:45:21.103Z,5.40
2019-05-19T11:46:21.212Z,5.20
2019-05-19T11:47:21.145Z,5.60
2019-05-19T11:48:21.134Z,5.30
2019-05-19T11:49:21.150Z,5.50
2019-05-19T11:50:21.181Z,5.30
2019-05-19T11:51:21.185Z,5.20
2019-05-19T11:52:21.216Z,5.40
2019-05-19T11:53:21.335Z,4.90
2019-05-19T11:54:21.384Z,5.10
2019-05-19T11:55:21.254Z,5.00
2019-05-19T11:56:21.265Z,5.70
2019-05-19T11:57:21.285Z,5.40
2019-05-19T11:58:21.329Z,5.50
2019-05-19T11:59:21.317Z,5.30
2019-05-19T12:00:21.333Z,6.00
2019-05-19T12:01:21.353Z,5.50
2019-05-19T12:02:21.371Z,5.40
2019-05-19T12:03:21.399Z,5.70
2019-05-19T12:04:21.400Z,6.40
2019-05-19T12:05:21.438Z,5.60
2019-05-19T12:06:21.487Z,5.70
2019-05-19T12:07:21.451Z,6.40
2019-05-19T12:08:21.465Z,6.80
2019-05-19T12:09:21.705Z,5.80
2019-05-19T12:10:21.572Z,5.40
2019-05-19T12:11:21.513Z,5.80
2019-05-19T12:12:21.628Z,5.20
2019-05-19T12:13:21.543Z,6.30
2019-05-19T12:14:21.563Z,5.50
2019-05-19T12:15:21.583Z,5.10
2019-05-19T12:16:21.600Z,5.30
2019-05-19T12:17:21.618Z,5.60
2019-05-19T12:18:21.630Z,5.80
2019-05-19T12:19:21.959Z,5.50
2019-05-19T12:20:21.672Z,5.40
2019-05-19T12:21:21.683Z,5.80
2019-05-19T12:22:21.695Z,5.20
2019-05-19T12:23:21.712Z,4.70
2019-05-19T12:24:21.738Z,5.40
2019-05-19T12:25:21.895Z,5.30
2019-05-19T12:26:23.606Z,5.00
2019-05-19T12:27:22.065Z,5.30
2019-05-19T12:28:21.847Z,5.20
2019-05-19T12:29:22.144Z,4.60
2019-05-19T12:30:22.010Z,5.20
2019-05-19T12:31:21.949Z,4.60
2019-05-19T12:32:21.868Z,4.80
2019-05-19T12:33:21.887Z,5.10
2019-05-19T12:34:21.936Z,5.80
2019-05-19T12:35:21.918Z,4.80
2019-05-19T12:36:21.938Z,5.00
2019-05-19T12:37:21.950Z,4.90
2019-05-19T12:38:21.973Z,5.20
2019-05-19T12:39:21.986Z,4.90
2019-05-19T12:40:22.842Z,4.90
2019-05-19T12:41:22.131Z,4.90
2019-05-19T12:42:22.052Z,5.10
2019-05-19T12:43:22.058Z,4.90
2019-05-19T12:44:22.067Z,4.80
2019-05-19T12:45:22.094Z,5.10
2019-05-19T12:46:22.104Z,5.00
2019-05-19T12:47:22.176Z,6.00
2019-05-19T12:48:22.141Z,5.00
2019-05-19T12:49:22.169Z,5.10
2019-05-19T12:50:22.183Z,4.60
2019-05-19T12:51:22.198Z,5.10
2019-05-19T12:52:22.240Z,4.70
2019-05-19T12:53:22.268Z,4.70
2019-05-19T12:54:22.289Z,4.90
2019-05-19T12:55:22.273Z,5.10
2019-05-19T12:56:22.343Z,5.40
2019-05-19T12:57:22.322Z,5.90
2019-05-19T12:58:22.354Z,5.40
2019-05-19T12:59:22.369Z,4.90
2019-05-19T13:00:22.460Z,4.90
2019-05-19T13:01:22.465Z,4.90
2019-05-19T13:02:22.435Z,5.40